Time;durP1;ratioP1;P1;durP2;ratioP2;P2;SDS_P1;SDS_P2;PMS_P1;PMS_P2;Temp;Humidity;BMP_temperature;BMP_pressure;BME280_temperature;BME280_humidity;BME280_pressure;Samples;Min_cycle;Max_cycle;Signal;HPM_P1;HPM_P2
2021/07/25 00:00:14;;;;;;;;;;;20.60;76.90;;;;;;5051403;28;19917;-63
2021/07/25 00:02:40;;;;;;;;;;;20.60;77.10;;;;;;5051300;28;20410;-62
2021/07/25 00:05:06;;;;;;;;;;;20.60;77.40;;;;;;5050930;28;19920;-62
2021/07/25 00:07:32;;;;;;;;;;;20.60;77.70;;;;;;5051154;28;20007;-63
2021/07/25 00:09:57;;;;;;;;;;;20.60;78.00;;;;;;5050847;28;20047;-62
2021/07/25 00:12:23;;;;;;;;;;;20.60;78.40;;;;;;5033577;28;19917;-63
2021/07/25 00:14:49;;;;;;;;;;;20.60;78.50;;;;;;5051337;28;20011;-62
2021/07/25 00:17:14;;;;;;;;;;;20.50;78.80;;;;;;5050593;28;19966;-61
2021/07/25 00:19:40;;;;;;;;;;;20.50;78.90;;;;;;5050978;28;19917;-63
2021/07/25 00:22:06;;;;;;;;;;;20.50;79.20;;;;;;5033321;28;20324;-63
2021/07/25 00:24:34;;;;;;;;;;;20.50;79.40;;;;;;5050721;28;20295;-63
2021/07/25 00:27:00;;;;;;;;;;;20.50;79.60;;;;;;5050895;28;19927;-61
2021/07/25 00:29:30;;;;;;;;;;;20.50;79.80;;;;;;5051062;28;20379;-62
2021/07/25 00:31:58;;;;;;;;;;;20.50;80.00;;;;;;5050758;28;20432;-62
2021/07/25 00:34:23;;;;;;;;;;;20.50;80.10;;;;;;5051290;28;20347;-63
2021/07/25 00:36:49;;;;;;;;;;;20.50;80.20;;;;;;5050434;28;20059;-63
2021/07/25 00:39:14;;;;;;;;;;;20.50;80.40;;;;;;5051377;28;20295;-65
2021/07/25 00:41:40;;;;;;;;;;;20.50;80.40;;;;;;5051120;28;20322;-65
2021/07/25 00:44:05;;;;;;;;;;;20.50;80.40;;;;;;5050570;28;19939;-65
2021/07/25 00:46:31;;;;;;;;;;;20.50;80.40;;;;;;5050874;28;19999;-65
2021/07/25 00:48:56;;;;;;;;;;;20.50;80.60;;;;;;5050689;28;19975;-65
2021/07/25 00:51:22;;;;;;;;;;;20.50;80.70;;;;;;5050469;28;19921;-65
2021/07/25 00:53:48;;;;;;;;;;;20.50;80.60;;;;;;5050623;28;19924;-65
2021/07/25 00:56:14;;;;;;;;;;;20.50;80.60;;;;;;5050595;28;19917;-65
2021/07/25 00:58:41;;;;;;;;;;;20.40;80.60;;;;;;5050624;28;19917;-65
2021/07/25 01:01:07;;;;;;;;;;;20.40;80.60;;;;;;5034006;28;20435;-65
2021/07/25 01:03:33;;;;;;;;;;;20.40;80.80;;;;;;5054250;28;20007;-65
2021/07/25 01:06:15;;;;;;;;;;;20.30;81.00;;;;;;5054611;28;20384;-67
2021/07/25 01:08:50;;;;;;;;;;;20.30;81.10;;;;;;5053959;28;19999;-65
2021/07/25 01:11:15;;;;;;;;;;;20.30;81.20;;;;;;5054625;28;19917;-65
2021/07/25 01:13:43;;;;;;;;;;;20.30;81.30;;;;;;5053996;28;19966;-65
2021/07/25 01:16:09;;;;;;;;;;;20.30;81.40;;;;;;5054504;28;19917;-65
2021/07/25 01:18:50;;;;;;;;;;;20.20;81.50;;;;;;5053576;28;20328;-65
2021/07/25 01:21:17;;;;;;;;;;;20.20;81.60;;;;;;5054305;28;19921;-65
2021/07/25 01:23:43;;;;;;;;;;;20.20;81.60;;;;;;5054189;28;19913;-65
2021/07/25 01:26:11;;;;;;;;;;;20.20;81.60;;;;;;5054016;28;20365;-65
2021/07/25 01:28:37;;;;;;;;;;;20.10;81.70;;;;;;5035890;28;19917;-64
2021/07/25 01:31:06;;;;;;;;;;;20.10;81.90;;;;;;5053669;28;19924;-64
2021/07/25 01:33:33;;;;;;;;;;;20.10;81.90;;;;;;5054127;28;19923;-64
2021/07/25 01:35:59;;;;;;;;;;;20.10;82.00;;;;;;5053628;28;19927;-64
2021/07/25 01:38:26;;;;;;;;;;;20.00;82.10;;;;;;5053563;28;20289;-65
2021/07/25 01:41:02;;;;;;;;;;;20.00;82.20;;;;;;5054015;28;20347;-65
2021/07/25 01:43:28;;;;;;;;;;;19.90;82.30;;;;;;5053364;28;19921;-65
2021/07/25 01:45:54;;;;;;;;;;;19.90;82.50;;;;;;5053864;28;19924;-65
2021/07/25 01:48:19;;;;;;;;;;;19.90;82.60;;;;;;5053046;28;19917;-65
2021/07/25 01:50:45;;;;;;;;;;;19.90;82.70;;;;;;5053775;28;19917;-65
2021/07/25 01:53:10;;;;;;;;;;;19.90;82.70;;;;;;5053745;28;19913;-65
2021/07/25 01:55:36;;;;;;;;;;;19.90;82.70;;;;;;5053269;28;19924;-65
2021/07/25 01:58:01;;;;;;;;;;;19.80;82.70;;;;;;5053453;28;19938;-65
2021/07/25 02:00:27;;;;;;;;;;;19.80;82.80;;;;;;5053560;28;20050;-65
2021/07/25 02:02:52;;;;;;;;;;;19.70;82.90;;;;;;5053012;28;19928;-65
2021/07/25 02:05:18;;;;;;;;;;;19.70;82.90;;;;;;5053485;28;19967;-65
2021/07/25 02:07:44;;;;;;;;;;;19.70;83.00;;;;;;5052635;28;20448;-65
2021/07/25 02:10:09;;;;;;;;;;;19.70;83.10;;;;;;5053404;28;19924;-65
2021/07/25 02:12:35;;;;;;;;;;;19.70;83.20;;;;;;5053229;28;19966;-65
2021/07/25 02:15:00;;;;;;;;;;;19.60;83.20;;;;;;5052919;28;20373;-65
2021/07/25 02:17:26;;;;;;;;;;;19.60;83.20;;;;;;5053134;28;19924;-65
2021/07/25 02:19:51;;;;;;;;;;;19.60;83.30;;;;;;5053235;28;20008;-65
2021/07/25 02:22:17;;;;;;;;;;;19.50;83.30;;;;;;5052717;28;19921;-65
2021/07/25 02:24:43;;;;;;;;;;;19.60;83.50;;;;;;5053031;28;19917;-65
2021/07/25 02:27:08;;;;;;;;;;;19.60;83.60;;;;;;5052827;28;19917;-65
2021/07/25 02:29:34;;;;;;;;;;;19.50;83.60;;;;;;5052459;28;20385;-65
2021/07/25 02:31:59;;;;;;;;;;;19.50;83.70;;;;;;5053054;28;19971;-64
2021/07/25 02:34:25;;;;;;;;;;;19.50;83.80;;;;;;5052508;28;20334;-64
2021/07/25 02:36:51;;;;;;;;;;;19.60;83.90;;;;;;5052564;28;19943;-65
2021/07/25 02:39:16;;;;;;;;;;;19.60;83.80;;;;;;5052690;28;19944;-64
2021/07/25 02:41:42;;;;;;;;;;;19.60;83.90;;;;;;5052258;28;20416;-65
2021/07/25 02:44:20;;;;;;;;;;;19.60;83.90;;;;;;5052767;28;19916;-66
2021/07/25 02:46:45;;;;;;;;;;;19.60;84.00;;;;;;5052223;28;19921;-64
2021/07/25 02:49:11;;;;;;;;;;;19.60;84.10;;;;;;5052646;28;20300;-65
2021/07/25 02:51:36;;;;;;;;;;;19.70;84.10;;;;;;5052640;28;20056;-65
2021/07/25 02:54:02;;;;;;;;;;;19.60;84.10;;;;;;5052212;28;19917;-65
2021/07/25 02:56:27;;;;;;;;;;;19.70;84.20;;;;;;5034645;28;20003;-65
2021/07/25 02:58:53;;;;;;;;;;;19.70;84.20;;;;;;5052120;28;20000;-65
2021/07/25 03:01:18;;;;;;;;;;;19.70;84.20;;;;;;5034453;28;20299;-65
2021/07/25 03:03:44;;;;;;;;;;;19.70;84.20;;;;;;5052621;28;19986;-65
2021/07/25 03:06:10;;;;;;;;;;;19.70;84.10;;;;;;5034081;28;19917;-65
2021/07/25 03:08:35;;;;;;;;;;;19.70;84.10;;;;;;5052010;28;19923;-66
2021/07/25 03:11:05;;;;;;;;;;;19.70;84.30;;;;;;5052253;28;19944;-65
2021/07/25 03:13:30;;;;;;;;;;;19.70;84.30;;;;;;5051804;28;19999;-64
2021/07/25 03:16:00;;;;;;;;;;;19.70;84.30;;;;;;5052247;28;19995;-65
2021/07/25 03:18:25;;;;;;;;;;;19.70;84.30;;;;;;5051460;28;20373;-64
2021/07/25 03:20:51;;;;;;;;;;;19.70;84.40;;;;;;5052001;28;19932;-65
2021/07/25 03:23:16;;;;;;;;;;;19.70;84.50;;;;;;5033878;28;19920;-65
2021/07/25 03:25:42;;;;;;;;;;;19.70;84.60;;;;;;5051379;28;19917;-64
2021/07/25 03:28:07;;;;;;;;;;;19.70;84.60;;;;;;5051711;28;20012;-65
2021/07/25 03:30:33;;;;;;;;;;;19.70;85.10;;;;;;5051762;28;20373;-66
2021/07/25 03:32:58;;;;;;;;;;;19.70;84.70;;;;;;5051517;28;19943;-64
2021/07/25 03:35:24;;;;;;;;;;;19.70;84.70;;;;;;5051825;28;19921;-65
2021/07/25 03:37:50;;;;;;;;;;;19.70;84.70;;;;;;5051107;28;19917;-64
2021/07/25 03:40:16;;;;;;;;;;;19.70;84.80;;;;;;5051496;28;19927;-64
2021/07/25 03:42:41;;;;;;;;;;;19.70;84.90;;;;;;5051712;28;20000;-65
2021/07/25 03:45:07;;;;;;;;;;;19.60;84.90;;;;;;5051239;28;19917;-64
2021/07/25 03:47:33;;;;;;;;;;;19.60;85.00;;;;;;5051308;28;19916;-65
2021/07/25 03:50:03;;;;;;;;;;;19.60;85.10;;;;;;5051641;28;19920;-65
2021/07/25 03:52:29;;;;;;;;;;;19.60;85.10;;;;;;5033485;28;19921;-65
2021/07/25 03:54:54;;;;;;;;;;;19.60;85.20;;;;;;5051486;28;19948;-65
2021/07/25 03:57:20;;;;;;;;;;;19.60;85.30;;;;;;5050792;28;20318;-65
2021/07/25 03:59:45;;;;;;;;;;;19.60;85.30;;;;;;5051289;28;20047;-64
2021/07/25 04:02:11;;;;;;;;;;;19.60;85.30;;;;;;5051439;28;20354;-65
2021/07/25 04:04:36;;;;;;;;;;;19.50;85.40;;;;;;5051071;28;20331;-65
2021/07/25 04:07:02;;;;;;;;;;;19.50;85.40;;;;;;5033349;28;19917;-65
2021/07/25 04:09:27;;;;;;;;;;;19.50;85.50;;;;;;5051170;28;19978;-65
2021/07/25 04:11:54;;;;;;;;;;;19.50;85.60;;;;;;5051057;28;19979;-65
2021/07/25 04:14:20;;;;;;;;;;;19.50;85.70;;;;;;5051314;28;20444;-65
2021/07/25 04:16:46;;;;;;;;;;;19.50;85.80;;;;;;5033171;28;20025;-65
2021/07/25 04:19:11;;;;;;;;;;;19.60;86.00;;;;;;5050762;28;19963;-65
2021/07/25 04:21:37;;;;;;;;;;;19.60;86.00;;;;;;5051256;28;19916;-65
2021/07/25 04:24:02;;;;;;;;;;;19.70;86.10;;;;;;5050741;28;19923;-64
2021/07/25 04:26:28;;;;;;;;;;;19.70;86.00;;;;;;5051322;28;19960;-65
2021/07/25 04:28:53;;;;;;;;;;;19.70;86.00;;;;;;5050844;28;20373;-64
2021/07/25 04:31:19;;;;;;;;;;;19.70;86.00;;;;;;5050684;28;19928;-65
2021/07/25 04:33:45;;;;;;;;;;;19.70;86.00;;;;;;5051122;28;19923;-66
2021/07/25 04:36:13;;;;;;;;;;;19.70;86.10;;;;;;5052379;28;19916;-65
2021/07/25 04:38:39;;;;;;;;;;;19.70;86.30;;;;;;5054266;28;19925;-64
2021/07/25 04:41:08;;;;;;;;;;;19.70;86.40;;;;;;5055148;28;19924;-65
2021/07/25 04:43:35;;;;;;;;;;;19.70;86.60;;;;;;5054693;28;20392;-65
2021/07/25 04:46:14;;;;;;;;;;;19.80;86.80;;;;;;5055179;28;19917;-64
2021/07/25 04:48:49;;;;;;;;;;;19.80;86.90;;;;;;5054144;28;19917;-65
2021/07/25 04:51:15;;;;;;;;;;;19.90;86.90;;;;;;5054997;28;20293;-65
2021/07/25 04:53:41;;;;;;;;;;;20.00;87.00;;;;;;5054422;28;19916;-65
2021/07/25 04:56:08;;;;;;;;;;;20.00;86.80;;;;;;5054902;28;19921;-65
2021/07/25 04:58:48;;;;;;;;;;;20.10;87.00;;;;;;5054475;28;19959;-65
2021/07/25 05:01:16;;;;;;;;;;;20.20;86.90;;;;;;5054393;28;19960;-66
2021/07/25 05:03:42;;;;;;;;;;;20.30;87.10;;;;;;5054660;28;20012;-65
2021/07/25 05:06:08;;;;;;;;;;;20.40;86.90;;;;;;5054211;28;20003;-64
2021/07/25 05:08:34;;;;;;;;;;;20.50;86.60;;;;;;5054318;28;19917;-64
2021/07/25 05:11:08;;;;;;;;;;;20.60;86.60;;;;;;5054523;28;20399;-65
2021/07/25 05:13:34;;;;;;;;;;;20.70;86.70;;;;;;5054144;28;19963;-65
2021/07/25 05:16:01;;;;;;;;;;;20.80;86.60;;;;;;5054373;28;20056;-65
2021/07/25 05:18:32;;;;;;;;;;;20.90;86.20;;;;;;5035877;28;19916;-64
2021/07/25 05:21:01;;;;;;;;;;;20.90;85.80;;;;;;5054558;28;19981;-64
2021/07/25 05:23:43;;;;;;;;;;;20.90;85.70;;;;;;5053850;28;19921;-64
2021/07/25 05:26:10;;;;;;;;;;;20.90;85.90;;;;;;5054360;28;20011;-65
2021/07/25 05:28:40;;;;;;;;;;;21.10;86.00;;;;;;5053875;28;20347;-64
2021/07/25 05:31:07;;;;;;;;;;;21.30;86.20;;;;;;5054000;28;19940;-65
2021/07/25 05:33:32;;;;;;;;;;;21.50;85.90;;;;;;5054166;28;19996;-64
2021/07/25 05:35:58;;;;;;;;;;;21.60;85.30;;;;;;5053735;28;19996;-64
2021/07/25 05:38:23;;;;;;;;;;;21.80;85.00;;;;;;5053503;28;20358;-65
2021/07/25 05:40:49;;;;;;;;;;;22.00;84.80;;;;;;5054087;28;20428;-64
2021/07/25 05:43:15;;;;;;;;;;;22.10;84.40;;;;;;5053384;28;20381;-64
2021/07/25 05:45:40;;;;;;;;;;;22.20;83.80;;;;;;5053935;28;19970;-64
2021/07/25 05:48:06;;;;;;;;;;;22.30;83.50;;;;;;5053038;28;19917;-65
2021/07/25 05:50:32;;;;;;;;;;;22.30;83.20;;;;;;5053479;28;20467;-65
2021/07/25 05:52:58;;;;;;;;;;;22.50;83.80;;;;;;5053873;28;20293;-65
2021/07/25 05:55:24;;;;;;;;;;;23.10;85.90;;;;;;5053222;28;19921;-65
2021/07/25 05:57:50;;;;;;;;;;;24.10;86.80;;;;;;5053402;28;19939;-65
2021/07/25 06:00:16;;;;;;;;;;;25.30;86.70;;;;;;5053519;28;20466;-66
2021/07/25 06:02:52;;;;;;;;;;;26.30;84.50;;;;;;5035243;28;20007;-65
2021/07/25 06:05:18;;;;;;;;;;;26.90;81.60;;;;;;5035638;28;19917;-65
2021/07/25 06:07:43;;;;;;;;;;;27.00;77.90;;;;;;5052766;28;19967;-64
2021/07/25 06:10:09;;;;;;;;;;;26.70;74.80;;;;;;5053328;28;19912;-65
2021/07/25 06:12:38;;;;;;;;;;;26.80;75.40;;;;;;5053509;28;19917;-66
2021/07/25 06:15:04;;;;;;;;;;;27.40;76.00;;;;;;5052982;28;19924;-66
2021/07/25 06:17:30;;;;;;;;;;;28.10;74.60;;;;;;5053033;28;19921;-65
2021/07/25 06:19:55;;;;;;;;;;;29.00;74.10;;;;;;5053077;28;19913;-64
2021/07/25 06:22:21;;;;;;;;;;;29.70;71.40;;;;;;5053029;28;20369;-65
2021/07/25 06:24:46;;;;;;;;;;;29.70;66.00;;;;;;5053014;28;19917;-65
2021/07/25 06:27:12;;;;;;;;;;;29.20;64.90;;;;;;5052272;28;20062;-64
2021/07/25 06:29:37;;;;;;;;;;;28.70;63.90;;;;;;5052993;28;20007;-65
2021/07/25 06:32:03;;;;;;;;;;;28.10;61.90;;;;;;5053222;28;19958;-66
2021/07/25 06:34:28;;;;;;;;;;;27.60;63.40;;;;;;5052692;28;19924;-66
2021/07/25 06:36:55;;;;;;;;;;;27.80;65.60;;;;;;5052879;28;19916;-65
2021/07/25 06:39:20;;;;;;;;;;;28.40;66.10;;;;;;5053140;28;20331;-66
2021/07/25 06:41:46;;;;;;;;;;;29.20;66.10;;;;;;5052678;28;19931;-66
2021/07/25 06:44:11;;;;;;;;;;;30.40;64.90;;;;;;5052839;28;19917;-66
2021/07/25 06:46:37;;;;;;;;;;;31.60;63.70;;;;;;5052349;28;19920;-66
2021/07/25 06:49:02;;;;;;;;;;;32.60;59.40;;;;;;5052730;28;20138;-65
2021/07/25 06:51:28;;;;;;;;;;;32.90;55.60;;;;;;5052729;28;19920;-66
2021/07/25 06:53:53;;;;;;;;;;;33.00;54.50;;;;;;5052036;28;19967;-66
2021/07/25 06:56:19;;;;;;;;;;;33.50;55.10;;;;;;5052571;28;19956;-66
2021/07/25 06:58:45;;;;;;;;;;;34.50;54.90;;;;;;5051250;28;19916;-66
2021/07/25 07:01:11;;;;;;;;;;;35.10;52.60;;;;;;5052168;28;19916;-67
2021/07/25 07:03:38;;;;;;;;;;;35.20;49.10;;;;;;5052310;28;19964;-67
2021/07/25 07:06:07;;;;;;;;;;;35.00;48.70;;;;;;5052075;28;20003;-66
2021/07/25 07:08:32;;;;;;;;;;;35.40;47.70;;;;;;5051885;28;20389;-66
2021/07/25 07:10:58;;;;;;;;;;;35.90;47.80;;;;;;5052275;28;19924;-66
2021/07/25 07:13:24;;;;;;;;;;;36.20;46.20;;;;;;5051652;28;19928;-66
2021/07/25 07:15:49;;;;;;;;;;;36.40;46.10;;;;;;5052196;28;19921;-67
2021/07/25 07:18:15;;;;;;;;;;;37.30;46.50;;;;;;5051793;28;19924;-66
2021/07/25 07:20:41;;;;;;;;;;;38.10;44.20;;;;;;5051619;28;19913;-67
2021/07/25 07:23:10;;;;;;;;;;;37.90;40.70;;;;;;5051942;28;19928;-66
2021/07/25 07:25:38;;;;;;;;;;;37.50;41.20;;;;;;5051630;28;20492;-66
2021/07/25 07:28:03;;;;;;;;;;;38.00;42.20;;;;;;5051789;28;20018;-66
2021/07/25 07:30:29;;;;;;;;;;;38.90;41.40;;;;;;5051835;28;20053;-67
2021/07/25 07:32:55;;;;;;;;;;;39.40;39.40;;;;;;5051528;28;19924;-66
2021/07/25 07:35:21;;;;;;;;;;;39.30;37.70;;;;;;5034143;28;19917;-68
2021/07/25 07:37:49;;;;;;;;;;;39.00;38.30;;;;;;5050974;28;19955;-65
2021/07/25 07:40:15;;;;;;;;;;;39.30;38.20;;;;;;5051691;28;20348;-66
2021/07/25 07:42:40;;;;;;;;;;;39.90;37.80;;;;;;5051640;28;20328;-67
2021/07/25 07:45:06;;;;;;;;;;;40.70;37.60;;;;;;5051425;28;19920;-67
2021/07/25 07:47:32;;;;;;;;;;;41.50;36.70;;;;;;5051270;28;20377;-67
2021/07/25 07:49:57;;;;;;;;;;;42.00;35.50;;;;;;5051539;28;19920;-66
2021/07/25 07:52:23;;;;;;;;;;;42.00;33.60;;;;;;5051215;28;20341;-67
2021/07/25 07:54:48;;;;;;;;;;;41.80;33.90;;;;;;5051714;28;19921;-67
2021/07/25 07:57:14;;;;;;;;;;;42.00;33.70;;;;;;5050825;28;19952;-66
2021/07/25 07:59:39;;;;;;;;;;;42.20;32.80;;;;;;5051466;28;19916;-67
2021/07/25 08:02:05;;;;;;;;;;;41.80;32.20;;;;;;5051493;28;19970;-68
2021/07/25 08:04:31;;;;;;;;;;;41.80;32.90;;;;;;5050978;28;19963;-67
2021/07/25 08:06:56;;;;;;;;;;;42.50;33.70;;;;;;5051186;28;19935;-67
2021/07/25 08:09:22;;;;;;;;;;;42.90;32.30;;;;;;5051181;28;19924;-66
2021/07/25 08:11:47;;;;;;;;;;;42.80;31.60;;;;;;5050988;28;19917;-66
2021/07/25 08:14:13;;;;;;;;;;;42.70;31.60;;;;;;5051164;28;20191;-68
2021/07/25 08:16:39;;;;;;;;;;;43.00;31.50;;;;;;5050539;28;19917;-67
2021/07/25 08:19:05;;;;;;;;;;;42.90;31.10;;;;;;5050666;28;19944;-67
2021/07/25 08:21:31;;;;;;;;;;;43.40;31.40;;;;;;5051363;28;19924;-67
2021/07/25 08:23:56;;;;;;;;;;;43.30;30.20;;;;;;5050634;28;19924;-66
2021/07/25 08:26:22;;;;;;;;;;;42.90;30.20;;;;;;5051218;28;19924;-67
2021/07/25 08:28:47;;;;;;;;;;;43.10;30.50;;;;;;5032607;28;19916;-67
2021/07/25 08:31:13;;;;;;;;;;;43.30;30.00;;;;;;5051107;28;19920;-67
2021/07/25 08:33:38;;;;;;;;;;;43.40;29.60;;;;;;5051082;28;19920;-67
2021/07/25 08:36:04;;;;;;;;;;;43.20;29.40;;;;;;5050586;28;19917;-65
2021/07/25 08:38:30;;;;;;;;;;;43.30;30.00;;;;;;5050491;28;21676;-67
2021/07/25 08:40:59;;;;;;;;;;;44.20;30.20;;;;;;5051059;28;20395;-67
2021/07/25 08:43:31;;;;;;;;;;;45.20;29.80;;;;;;5050422;28;19921;-68
2021/07/25 08:45:57;;;;;;;;;;;46.20;29.30;;;;;;5051059;28;19917;-67
2021/07/25 08:48:27;;;;;;;;;;;47.00;28.80;;;;;;5050065;28;19916;-67
2021/07/25 08:51:03;;;;;;;;;;;47.80;28.40;;;;;;5051007;28;20050;-68
2021/07/25 08:53:33;;;;;;;;;;;48.50;27.70;;;;;;5050677;28;20494;-67
2021/07/25 08:55:59;;;;;;;;;;;48.50;27.10;;;;;;5050982;28;19917;-67
2021/07/25 08:58:27;;;;;;;;;;;48.50;26.70;;;;;;5050528;28;19923;-68
2021/07/25 09:00:52;;;;;;;;;;;48.10;26.10;;;;;;5050497;28;19916;-68
2021/07/25 09:03:19;;;;;;;;;;;47.80;26.50;;;;;;5051015;28;19932;-66
2021/07/25 09:05:46;;;;;;;;;;;48.00;26.50;;;;;;5050481;28;20003;-67
2021/07/25 09:08:12;;;;;;;;;;;48.20;26.50;;;;;;5050494;28;19924;-68
2021/07/25 09:10:37;;;;;;;;;;;48.80;26.60;;;;;;5050771;28;20301;-67
2021/07/25 09:13:03;;;;;;;;;;;49.20;26.20;;;;;;5050370;28;19917;-66
2021/07/25 09:15:34;;;;;;;;;;;49.60;26.00;;;;;;5050935;28;19921;-68
2021/07/25 09:18:00;;;;;;;;;;;49.80;25.60;;;;;;5050160;28;19920;-66
2021/07/25 09:20:36;;;;;;;;;;;50.20;25.50;;;;;;5050739;28;19917;-67
2021/07/25 09:26:48;;;;;;;;;;;49.70;25.40;;;;;;5053537;28;19947;-67
2021/07/25 09:29:21;;;;;;;;;;;50.60;25.30;;;;;;5053926;28;20012;-68
2021/07/25 09:31:47;;;;;;;;;;;50.50;24.50;;;;;;5054436;28;19917;-68
2021/07/25 09:34:32;;;;;;;;;;;49.80;24.50;;;;;;5054117;28;20000;-68
2021/07/25 09:37:11;;;;;;;;;;;49.70;24.80;;;;;;5053492;28;20396;-69
2021/07/25 09:39:38;;;;;;;;;;;49.60;25.10;;;;;;5053549;28;20007;-67
2021/07/25 09:42:04;;;;;;;;;;;50.30;25.00;;;;;;5053858;28;20120;-67
2021/07/25 09:44:43;;;;;;;;;;;51.20;25.00;;;;;;5053973;28;20377;-68
2021/07/25 09:47:09;;;;;;;;;;;52.20;24.70;;;;;;5053533;28;20258;-69
2021/07/25 09:49:41;;;;;;;;;;;52.80;24.20;;;;;;5053891;28;19942;-68
2021/07/25 09:52:07;;;;;;;;;;;53.30;23.80;;;;;;5053370;28;19921;-68
2021/07/25 09:54:32;;;;;;;;;;;53.60;23.60;;;;;;5053702;28;20487;-68
2021/07/25 09:57:11;;;;;;;;;;;53.80;23.30;;;;;;5053219;28;19916;-68
2021/07/25 09:59:36;;;;;;;;;;;53.70;23.20;;;;;;5053332;28;19921;-69
2021/07/25 10:02:02;;;;;;;;;;;53.60;23.10;;;;;;5053515;28;19974;-68
2021/07/25 10:04:27;;;;;;;;;;;52.90;22.70;;;;;;5053435;28;19920;-68
2021/07/25 10:06:54;;;;;;;;;;;52.40;23.20;;;;;;5053311;28;20292;-68
2021/07/25 10:09:20;;;;;;;;;;;52.70;23.40;;;;;;5053695;28;19928;-68
2021/07/25 10:11:48;;;;;;;;;;;53.40;23.60;;;;;;5052882;28;19920;-68
2021/07/25 10:14:14;;;;;;;;;;;54.10;23.40;;;;;;5053468;28;19931;-68
2021/07/25 10:16:40;;;;;;;;;;;54.50;23.10;;;;;;5052894;28;20385;-66
2021/07/25 10:19:07;;;;;;;;;;;54.10;22.20;;;;;;5053234;28;19916;-70
2021/07/25 10:21:33;;;;;;;;;;;53.20;22.50;;;;;;5053180;28;20389;-68
2021/07/25 10:23:59;;;;;;;;;;;53.20;22.90;;;;;;5052711;28;19952;-68
2021/07/25 10:26:25;;;;;;;;;;;53.60;23.00;;;;;;5053250;28;19992;-70
2021/07/25 10:28:53;;;;;;;;;;;54.20;23.00;;;;;;5052851;28;19924;-69
2021/07/25 10:31:19;;;;;;;;;;;54.60;22.70;;;;;;5052776;28;19949;-69
2021/07/25 10:33:47;;;;;;;;;;;54.80;22.60;;;;;;5053051;28;20292;-69
2021/07/25 10:36:12;;;;;;;;;;;54.50;22.30;;;;;;5052712;28;19923;-67
2021/07/25 10:38:38;;;;;;;;;;;54.30;22.40;;;;;;5052419;28;20015;-69
2021/07/25 10:41:04;;;;;;;;;;;54.30;22.50;;;;;;5052925;28;19967;-68
2021/07/25 10:43:30;;;;;;;;;;;54.30;22.50;;;;;;5052444;28;19933;-69
2021/07/25 10:46:16;;;;;;;;;;;54.40;22.50;;;;;;5052879;28;19917;-69
2021/07/25 10:49:09;;;;;;;;;;;54.40;22.40;;;;;;5052097;28;19948;-70
2021/07/25 10:51:35;;;;;;;;;;;54.60;22.50;;;;;;5052256;28;20377;-69
2021/07/25 10:54:19;;;;;;;;;;;54.80;22.50;;;;;;5052705;28;19923;-68
2021/07/25 10:57:02;;;;;;;;;;;55.20;22.60;;;;;;5051916;28;19992;-68
2021/07/25 10:59:47;;;;;;;;;;;55.20;22.10;;;;;;5052532;28;20377;-68
2021/07/25 11:02:21;;;;;;;;;;;55.20;22.20;;;;;;5052218;28;19954;-68
2021/07/25 11:04:50;;;;;;;;;;;55.40;22.30;;;;;;5052566;28;20369;-68
2021/07/25 11:07:21;;;;;;;;;;;55.80;22.20;;;;;;5051594;28;19913;-69
2021/07/25 11:10:05;;;;;;;;;;;55.90;22.20;;;;;;5052425;28;20381;-69
2021/07/25 11:12:55;;;;;;;;;;;55.20;21.80;;;;;;5034196;28;20427;-69
2021/07/25 11:15:39;;;;;;;;;;;53.70;22.30;;;;;;5051896;28;20293;-65
2021/07/25 11:18:06;;;;;;;;;;;53.90;22.60;;;;;;5051711;28;20399;-69
2021/07/25 11:20:39;;;;;;;;;;;54.40;22.60;;;;;;5051577;28;20003;-69
2021/07/25 11:23:25;;;;;;;;;;;54.90;22.50;;;;;;5052171;28;19956;-69
2021/07/25 11:25:51;;;;;;;;;;;55.20;22.30;;;;;;5034168;28;19921;-68
2021/07/25 11:28:35;;;;;;;;;;;54.00;22.00;;;;;;5051554;28;19917;-68
2021/07/25 11:31:01;;;;;;;;;;;52.70;22.20;;;;;;5051554;28;19979;-69
2021/07/25 11:33:39;;;;;;;;;;;51.90;22.30;;;;;;5051957;28;20385;-69
2021/07/25 11:36:04;;;;;;;;;;;50.80;22.60;;;;;;5051440;28;20027;-68
2021/07/25 11:38:32;;;;;;;;;;;50.10;23.00;;;;;;5051507;28;21814;-67
2021/07/25 11:40:57;;;;;;;;;;;48.30;22.80;;;;;;5051356;28;20343;-66
2021/07/25 11:43:23;;;;;;;;;;;45.80;23.40;;;;;;5051577;28;19921;-67
2021/07/25 11:45:49;;;;;;;;;;;43.50;24.20;;;;;;5051280;28;20309;-67
2021/07/25 11:48:20;;;;;;;;;;;41.70;25.30;;;;;;5050869;28;19923;-67
2021/07/25 11:50:46;;;;;;;;;;;40.30;26.00;;;;;;5051670;28;19916;-67
2021/07/25 11:53:12;;;;;;;;;;;39.20;27.30;;;;;;5051046;28;20259;-66
2021/07/25 11:55:38;;;;;;;;;;;38.50;27.70;;;;;;5033545;28;20005;-66
2021/07/25 11:58:14;;;;;;;;;;;38.00;28.50;;;;;;5051061;28;19917;-67
2021/07/25 12:00:39;;;;;;;;;;;37.80;28.80;;;;;;5050870;28;19921;-67
2021/07/25 12:03:05;;;;;;;;;;;37.90;29.00;;;;;;5051213;28;19923;-66
2021/07/25 12:05:31;;;;;;;;;;;38.10;29.30;;;;;;5050894;28;20003;-66
2021/07/25 12:08:09;;;;;;;;;;;38.30;29.20;;;;;;5050976;28;20391;-66
2021/07/25 12:10:34;;;;;;;;;;;38.10;28.90;;;;;;5051222;28;20274;-67
2021/07/25 12:13:03;;;;;;;;;;;37.20;29.10;;;;;;5033107;28;20012;-67
2021/07/25 12:15:30;;;;;;;;;;;36.60;29.90;;;;;;5051347;28;19917;-67
2021/07/25 12:17:55;;;;;;;;;;;36.50;31.00;;;;;;5050273;28;19916;-66
2021/07/25 12:20:21;;;;;;;;;;;36.80;31.00;;;;;;5051094;28;19917;-66
2021/07/25 12:22:57;;;;;;;;;;;37.40;30.70;;;;;;5033103;28;20381;-67
2021/07/25 12:25:24;;;;;;;;;;;37.50;30.00;;;;;;5050970;28;19939;-67
2021/07/25 12:28:02;;;;;;;;;;;36.70;30.10;;;;;;5050985;28;19920;-67
2021/07/25 12:30:37;;;;;;;;;;;36.80;31.10;;;;;;5050694;28;20257;-66
2021/07/25 12:33:03;;;;;;;;;;;37.30;31.10;;;;;;5051093;28;19932;-66
2021/07/25 12:35:31;;;;;;;;;;;37.80;30.80;;;;;;5050591;28;19913;-67
2021/07/25 12:37:58;;;;;;;;;;;37.80;30.80;;;;;;5050658;28;19917;-67
2021/07/25 12:40:25;;;;;;;;;;;37.20;30.40;;;;;;5051510;28;20394;-62
2021/07/25 12:42:56;;;;;;;;;;;36.10;30.40;;;;;;5050699;28;19921;-63
2021/07/25 12:45:34;;;;;;;;;;;35.20;31.00;;;;;;5050892;28;20369;-61
2021/07/25 12:48:18;;;;;;;;;;;34.40;31.70;;;;;;5050574;28;19920;-61
2021/07/25 12:54:00;;;;;;;;;;;33.00;33.00;;;;;;5034482;28;19940;-63
2021/07/25 12:56:26;;;;;;;;;;;32.80;34.40;;;;;;5050600;28;19917;-61
2021/07/25 12:58:53;;;;;;;;;;;32.90;35.10;;;;;;5054413;28;19962;-63
2021/07/25 13:03:57;;;;;;;;;;;33.10;36.10;;;;;;5054009;28;19921;-63
2021/07/25 13:06:23;;;;;;;;;;;33.30;36.10;;;;;;5054843;28;19939;-63
2021/07/25 13:08:52;;;;;;;;;;;33.50;36.00;;;;;;5053928;28;20381;-62
2021/07/25 13:11:19;;;;;;;;;;;33.50;35.50;;;;;;5054586;28;19952;-63
2021/07/25 13:13:45;;;;;;;;;;;33.40;35.50;;;;;;5054506;28;19923;-63
2021/07/25 13:16:12;;;;;;;;;;;33.50;35.90;;;;;;5054037;28;20428;-62
2021/07/25 13:18:40;;;;;;;;;;;34.00;36.10;;;;;;5053990;28;20008;-62
2021/07/25 13:21:09;;;;;;;;;;;34.40;35.70;;;;;;5019589;28;19916;-62
2021/07/25 13:23:35;;;;;;;;;;;34.50;35.10;;;;;;5054267;28;20019;-63
2021/07/25 13:26:01;;;;;;;;;;;34.20;34.60;;;;;;5054201;28;20003;-62
2021/07/25 13:28:26;;;;;;;;;;;33.80;34.50;;;;;;5053788;28;20004;-62
2021/07/25 13:30:52;;;;;;;;;;;33.60;35.30;;;;;;5054177;28;19916;-62
2021/07/25 13:33:18;;;;;;;;;;;33.30;35.80;;;;;;5054209;28;19952;-62
2021/07/25 13:35:43;;;;;;;;;;;33.20;36.00;;;;;;5053638;28;19971;-61
2021/07/25 13:38:09;;;;;;;;;;;33.00;35.80;;;;;;5053751;28;20019;-62
2021/07/25 13:40:34;;;;;;;;;;;32.80;35.80;;;;;;5053440;28;19966;-62
2021/07/25 13:43:00;;;;;;;;;;;32.90;37.10;;;;;;5053867;28;20294;-61
2021/07/25 13:45:26;;;;;;;;;;;33.10;36.60;;;;;;5053971;28;19917;-62
2021/07/25 13:47:53;;;;;;;;;;;33.40;36.50;;;;;;5053198;28;19924;-63
2021/07/25 13:50:18;;;;;;;;;;;33.40;36.00;;;;;;5035868;28;20286;-62
2021/07/25 13:52:44;;;;;;;;;;;33.30;36.10;;;;;;5053706;28;19928;-62
2021/07/25 13:55:10;;;;;;;;;;;33.20;36.50;;;;;;5053156;28;19982;-62
2021/07/25 13:57:36;;;;;;;;;;;33.00;36.40;;;;;;5053434;28;19917;-61
2021/07/25 14:00:02;;;;;;;;;;;32.80;36.40;;;;;;5053138;28;19917;-64
2021/07/25 14:02:28;;;;;;;;;;;32.60;36.50;;;;;;5053611;28;20369;-62
2021/07/25 14:04:54;;;;;;;;;;;32.50;37.40;;;;;;5053574;28;19916;-63
2021/07/25 14:07:19;;;;;;;;;;;32.60;38.00;;;;;;5052470;28;19959;-61
2021/07/25 14:09:45;;;;;;;;;;;32.50;37.90;;;;;;5035301;28;19944;-62
2021/07/25 14:12:10;;;;;;;;;;;32.50;38.20;;;;;;5035565;28;19916;-63
2021/07/25 14:14:36;;;;;;;;;;;32.40;38.30;;;;;;5052940;28;19936;-61
2021/07/25 14:17:04;;;;;;;;;;;32.50;38.80;;;;;;5053110;28;19923;-62
2021/07/25 14:19:30;;;;;;;;;;;32.70;38.80;;;;;;5052544;28;20435;-61
2021/07/25 14:21:56;;;;;;;;;;;32.90;38.80;;;;;;5053233;28;19921;-61
2021/07/25 14:24:21;;;;;;;;;;;32.90;38.40;;;;;;5053306;28;19917;-62
2021/07/25 14:26:47;;;;;;;;;;;32.80;38.60;;;;;;5052476;28;19917;-62